createdAt,value
2016-10-25T00:00:08.479Z,0
2016-10-25T00:00:48.898Z,0
2016-10-25T00:01:29.343Z,0
2016-10-25T00:02:09.807Z,0
2016-10-25T00:02:50.240Z,0
2016-10-25T00:03:30.665Z,0
2016-10-25T00:04:11.138Z,0
2016-10-25T00:04:51.567Z,0
2016-10-25T00:05:32.008Z,0
2016-10-25T00:06:12.482Z,0
2016-10-25T00:06:52.866Z,0
2016-10-25T00:07:33.311Z,0
2016-10-25T00:08:13.738Z,0
2016-10-25T00:08:54.332Z,0
2016-10-25T00:09:34.765Z,0
2016-10-25T00:10:15.217Z,0
2016-10-25T00:10:55.644Z,0
2016-10-25T00:11:36.131Z,0
2016-10-25T00:12:16.567Z,0
2016-10-25T00:12:56.998Z,0
2016-10-25T00:13:37.431Z,0
2016-10-25T00:14:17.897Z,0
2016-10-25T00:14:58.360Z,0
2016-10-25T00:15:38.774Z,0
2016-10-25T00:16:19.263Z,0
2016-10-25T00:16:59.700Z,0
2016-10-25T00:17:40.194Z,0
2016-10-25T00:18:20.637Z,0
2016-10-25T00:19:01.088Z,0
2016-10-25T00:19:41.522Z,0
2016-10-25T00:20:21.988Z,0
2016-10-25T00:21:02.425Z,0
2016-10-25T00:21:42.852Z,0
2016-10-25T00:22:23.326Z,0
2016-10-25T00:23:03.817Z,0
2016-10-25T00:23:44.244Z,0
2016-10-25T00:24:24.693Z,0
2016-10-25T00:25:05.171Z,0
2016-10-25T00:25:45.592Z,0
2016-10-25T00:26:26.029Z,0
2016-10-25T00:27:06.557Z,0
2016-10-25T00:27:46.918Z,0
2016-10-25T00:28:27.369Z,0
2016-10-25T00:29:07.855Z,0
2016-10-25T00:29:48.279Z,0
2016-10-25T00:30:28.716Z,0
2016-10-25T00:31:09.170Z,0
2016-10-25T00:31:49.604Z,0
2016-10-25T00:32:30.081Z,0
2016-10-25T00:33:10.562Z,0
2016-10-25T00:33:50.941Z,0
2016-10-25T00:34:31.523Z,0
2016-10-25T00:35:11.934Z,0
2016-10-25T00:35:52.391Z,0
2016-10-25T00:36:32.836Z,0
2016-10-25T00:37:13.272Z,0
2016-10-25T00:37:53.725Z,0
2016-10-25T00:38:34.337Z,0
2016-10-25T00:39:14.723Z,0
2016-10-25T00:39:55.193Z,0
2016-10-25T00:40:35.638Z,0
2016-10-25T00:41:16.084Z,0
2016-10-25T00:41:56.535Z,0
2016-10-25T00:42:37.004Z,0
2016-10-25T00:43:17.462Z,0
2016-10-25T00:43:57.907Z,0
2016-10-25T00:44:38.320Z,0
2016-10-25T00:45:18.807Z,0
2016-10-25T00:45:59.216Z,0
2016-10-25T00:46:39.686Z,0
2016-10-25T00:47:20.127Z,0
2016-10-25T00:48:00.578Z,0
2016-10-25T00:48:41.001Z,0
2016-10-25T00:49:21.479Z,0
2016-10-25T00:50:01.932Z,0
2016-10-25T00:50:42.341Z,0
2016-10-25T00:51:22.830Z,0
2016-10-25T00:52:03.266Z,0
2016-10-25T00:52:43.721Z,0
2016-10-25T00:53:24.166Z,0
2016-10-25T00:54:04.609Z,0
2016-10-25T00:54:45.068Z,0
2016-10-25T00:55:25.491Z,0
2016-10-25T00:56:05.934Z,0
2016-10-25T00:56:46.409Z,0
2016-10-25T00:57:26.833Z,0
2016-10-25T00:58:07.287Z,0
2016-10-25T00:58:47.721Z,0
2016-10-25T00:59:28.164Z,0
2016-10-25T01:00:08.584Z,0
2016-10-25T01:00:49.018Z,0
2016-10-25T01:01:29.455Z,0
2016-10-25T01:02:09.935Z,0
2016-10-25T01:02:50.409Z,0
2016-10-25T01:03:30.807Z,0
2016-10-25T01:04:11.262Z,0
2016-10-25T01:04:51.723Z,0
2016-10-25T01:05:32.198Z,0
2016-10-25T01:06:12.639Z,0
2016-10-25T01:06:53.137Z,0
2016-10-25T01:07:33.546Z,0
2016-10-25T01:08:14.001Z,0
2016-10-25T01:08:54.530Z,0
2016-10-25T01:09:35.006Z,0
2016-10-25T01:10:15.430Z,0
2016-10-25T01:10:55.910Z,0
2016-10-25T01:11:36.358Z,0
2016-10-25T01:12:16.902Z,0
2016-10-25T01:12:57.371Z,0
2016-10-25T01:13:38.403Z,0
2016-10-25T01:14:18.293Z,0
2016-10-25T01:14:58.665Z,0
2016-10-25T01:15:39.126Z,0
2016-10-25T01:16:19.595Z,0
2016-10-25T01:17:00.055Z,0
2016-10-25T01:17:40.551Z,0
2016-10-25T01:18:20.929Z,0
2016-10-25T01:19:01.378Z,0
2016-10-25T01:19:41.822Z,0
2016-10-25T01:20:22.297Z,0
2016-10-25T01:21:02.807Z,0
2016-10-25T01:21:43.232Z,0
2016-10-25T01:22:23.686Z,0
2016-10-25T01:23:04.170Z,0
2016-10-25T01:23:44.607Z,0
2016-10-25T01:24:25.040Z,0
2016-10-25T01:25:05.525Z,0
2016-10-25T01:25:45.950Z,0
2016-10-25T01:26:26.375Z,0
2016-10-25T01:27:06.827Z,0
2016-10-25T01:27:47.278Z,0
2016-10-25T01:28:27.735Z,0
2016-10-25T01:29:08.195Z,0
2016-10-25T01:29:48.625Z,0
2016-10-25T01:30:29.086Z,0
2016-10-25T01:31:09.544Z,0
2016-10-25T01:31:49.988Z,0
2016-10-25T01:32:30.464Z,0
2016-10-25T01:33:10.933Z,0
2016-10-25T01:33:51.356Z,0
2016-10-25T01:34:31.813Z,0
2016-10-25T01:35:12.272Z,0
2016-10-25T01:35:52.707Z,0
2016-10-25T01:36:33.185Z,0
2016-10-25T01:37:13.628Z,0
2016-10-25T01:37:54.145Z,0
2016-10-25T01:38:34.721Z,0
2016-10-25T01:39:14.973Z,0
2016-10-25T01:39:55.427Z,0
2016-10-25T01:40:35.893Z,0
2016-10-25T01:41:16.371Z,0
2016-10-25T01:41:56.769Z,0
2016-10-25T01:42:37.187Z,0
2016-10-25T01:43:17.673Z,0
2016-10-25T01:43:58.116Z,0
2016-10-25T01:44:38.545Z,0
2016-10-25T01:45:18.976Z,0
2016-10-25T01:45:59.445Z,0
2016-10-25T01:46:39.887Z,0
2016-10-25T01:47:20.319Z,0
2016-10-25T01:48:00.762Z,0
2016-10-25T01:48:41.226Z,0
2016-10-25T01:49:21.664Z,0
2016-10-25T01:50:02.144Z,0
2016-10-25T01:50:42.563Z,0
2016-10-25T01:51:23.003Z,0
2016-10-25T01:52:03.415Z,0
2016-10-25T01:52:43.917Z,0
2016-10-25T01:53:24.368Z,0
2016-10-25T01:54:04.809Z,0
2016-10-25T01:54:45.265Z,0
2016-10-25T01:55:25.743Z,0
2016-10-25T01:56:06.174Z,0
2016-10-25T01:56:46.631Z,0
2016-10-25T01:57:27.096Z,0
2016-10-25T01:58:07.561Z,0
2016-10-25T01:58:48.028Z,0
2016-10-25T01:59:28.478Z,0
2016-10-25T02:00:08.945Z,0
2016-10-25T02:00:49.433Z,0
2016-10-25T02:01:29.818Z,0
2016-10-25T02:02:10.276Z,0
2016-10-25T02:02:50.686Z,0
2016-10-25T02:03:31.166Z,0
2016-10-25T02:04:11.572Z,0
2016-10-25T02:04:52.052Z,0
2016-10-25T02:05:32.500Z,0
2016-10-25T02:06:13.213Z,0
2016-10-25T02:06:53.614Z,0
2016-10-25T02:07:34.044Z,0
2016-10-25T02:08:14.488Z,0
2016-10-25T02:08:54.940Z,0
2016-10-25T02:09:35.396Z,0
2016-10-25T02:10:15.906Z,0
2016-10-25T02:10:56.374Z,0
2016-10-25T02:11:36.846Z,0
2016-10-25T02:12:17.257Z,0
2016-10-25T02:12:57.689Z,0
2016-10-25T02:13:38.140Z,0
2016-10-25T02:14:18.574Z,0
2016-10-25T02:14:59.021Z,0
2016-10-25T02:15:39.467Z,0
2016-10-25T02:16:19.967Z,0
2016-10-25T02:17:00.452Z,0
2016-10-25T02:17:40.881Z,0
2016-10-25T02:18:21.324Z,0
2016-10-25T02:19:01.781Z,0
2016-10-25T02:19:42.185Z,0
2016-10-25T02:20:22.661Z,0
2016-10-25T02:21:03.068Z,0
2016-10-25T02:21:43.513Z,0
2016-10-25T02:22:23.985Z,0
2016-10-25T02:23:04.407Z,0
2016-10-25T02:23:44.874Z,0
2016-10-25T02:24:25.319Z,0
2016-10-25T02:25:05.765Z,0
2016-10-25T02:25:46.204Z,0
2016-10-25T02:26:26.657Z,0
2016-10-25T02:27:07.087Z,0
2016-10-25T02:27:47.515Z,0
2016-10-25T02:28:27.955Z,0
2016-10-25T02:29:08.416Z,0
2016-10-25T02:29:48.852Z,0
2016-10-25T02:30:29.300Z,0
2016-10-25T02:31:09.760Z,0
2016-10-25T02:31:50.177Z,0
2016-10-25T02:32:30.620Z,0
2016-10-25T02:33:11.075Z,0
2016-10-25T02:33:51.488Z,0
2016-10-25T02:34:31.947Z,0
2016-10-25T02:35:12.376Z,0
2016-10-25T02:35:52.811Z,0
2016-10-25T02:36:33.280Z,0
2016-10-25T02:37:13.743Z,0
2016-10-25T02:37:54.193Z,0
2016-10-25T02:38:34.614Z,0
2016-10-25T02:39:15.068Z,0
2016-10-25T02:39:55.494Z,0
2016-10-25T02:40:35.937Z,0
2016-10-25T02:41:16.445Z,0
2016-10-25T02:41:56.846Z,0
2016-10-25T02:42:37.296Z,0
2016-10-25T02:43:17.711Z,0
2016-10-25T02:43:58.185Z,0
2016-10-25T02:44:38.620Z,0
2016-10-25T02:45:19.080Z,0
2016-10-25T02:45:59.475Z,0
2016-10-25T02:46:39.996Z,0
2016-10-25T02:47:20.428Z,0
2016-10-25T02:48:00.820Z,0
2016-10-25T02:48:41.311Z,0
2016-10-25T02:49:21.717Z,0
2016-10-25T02:50:02.182Z,0
2016-10-25T02:50:42.630Z,0
2016-10-25T02:51:23.107Z,0
2016-10-25T02:52:03.522Z,0
2016-10-25T02:52:43.986Z,0
2016-10-25T02:53:24.408Z,0
2016-10-25T02:54:04.862Z,0
2016-10-25T02:54:45.314Z,0
2016-10-25T02:55:25.730Z,0
2016-10-25T02:56:06.242Z,0
2016-10-25T02:56:46.652Z,0
2016-10-25T02:57:27.092Z,0
2016-10-25T02:58:07.643Z,0
2016-10-25T02:58:48.069Z,0
2016-10-25T02:59:28.504Z,0
2016-10-25T03:00:08.939Z,0
2016-10-25T03:00:49.392Z,0
2016-10-25T03:01:29.838Z,0
2016-10-25T03:02:10.258Z,0
2016-10-25T03:02:50.740Z,0
2016-10-25T03:03:31.144Z,0
2016-10-25T03:04:11.592Z,0
2016-10-25T03:04:52.056Z,0
2016-10-25T03:05:32.468Z,0
2016-10-25T03:06:12.920Z,0
2016-10-25T03:06:53.379Z,0
2016-10-25T03:07:33.828Z,0
2016-10-25T03:08:14.276Z,0
2016-10-25T03:08:54.733Z,0
2016-10-25T03:09:35.174Z,0
2016-10-25T03:10:15.615Z,0
2016-10-25T03:10:56.100Z,0
2016-10-25T03:11:36.582Z,0
2016-10-25T03:12:16.991Z,0
2016-10-25T03:12:57.421Z,0
2016-10-25T03:13:37.888Z,0
2016-10-25T03:14:18.347Z,0
2016-10-25T03:14:58.792Z,0
2016-10-25T03:15:39.248Z,0
2016-10-25T03:16:19.727Z,0
2016-10-25T03:17:00.145Z,0
2016-10-25T03:17:40.582Z,0
2016-10-25T03:18:20.983Z,0
2016-10-25T03:19:01.426Z,0
2016-10-25T03:19:41.895Z,0
2016-10-25T03:20:22.328Z,0
2016-10-25T03:21:02.760Z,0
2016-10-25T03:21:43.229Z,0
2016-10-25T03:22:23.686Z,0
2016-10-25T03:23:04.096Z,0
2016-10-25T03:23:44.543Z,0
2016-10-25T03:24:25.003Z,0
2016-10-25T03:25:05.475Z,0
2016-10-25T03:25:45.923Z,0
2016-10-25T03:26:26.378Z,0
2016-10-25T03:27:06.819Z,0
2016-10-25T03:27:47.224Z,0
2016-10-25T03:28:27.701Z,0
2016-10-25T03:29:08.117Z,0
2016-10-25T03:29:48.600Z,0
2016-10-25T03:30:28.985Z,0
2016-10-25T03:31:09.482Z,0
2016-10-25T03:31:49.871Z,0
2016-10-25T03:32:30.310Z,0
2016-10-25T03:33:10.763Z,0
2016-10-25T03:33:51.209Z,0
2016-10-25T03:34:31.638Z,0
2016-10-25T03:35:12.076Z,0
2016-10-25T03:35:52.572Z,0
2016-10-25T03:36:32.986Z,0
2016-10-25T03:37:13.484Z,0
2016-10-25T03:37:53.933Z,0
2016-10-25T03:38:34.344Z,0
2016-10-25T03:39:14.825Z,0
2016-10-25T03:39:55.269Z,0
2016-10-25T03:40:35.699Z,0
2016-10-25T03:41:16.136Z,0
2016-10-25T03:41:56.667Z,0
2016-10-25T03:42:37.152Z,0
2016-10-25T03:43:17.585Z,0
2016-10-25T03:43:57.988Z,0
2016-10-25T03:44:38.438Z,0
2016-10-25T03:45:18.923Z,0
2016-10-25T03:45:59.359Z,0
2016-10-25T03:46:39.755Z,0
2016-10-25T03:47:20.245Z,0
2016-10-25T03:48:00.647Z,0
2016-10-25T03:48:41.062Z,0
2016-10-25T03:49:21.558Z,0
2016-10-25T03:50:02.062Z,0
2016-10-25T03:50:42.486Z,0
2016-10-25T03:51:22.974Z,0
2016-10-25T03:52:03.446Z,0
2016-10-25T03:52:43.872Z,0
2016-10-25T03:53:24.302Z,0
2016-10-25T03:54:04.771Z,0
2016-10-25T03:54:45.240Z,0
2016-10-25T03:55:25.666Z,0
2016-10-25T03:56:06.051Z,0
2016-10-25T03:56:46.496Z,0
2016-10-25T03:57:26.910Z,0
2016-10-25T03:58:07.362Z,0
2016-10-25T03:58:47.811Z,0
2016-10-25T03:59:28.240Z,0
2016-10-25T04:00:08.767Z,0
2016-10-25T04:00:49.161Z,0
2016-10-25T04:01:29.635Z,0
2016-10-25T04:02:10.080Z,0
2016-10-25T04:02:50.507Z,0
2016-10-25T04:03:30.939Z,0
2016-10-25T04:04:11.412Z,0
2016-10-25T04:04:51.822Z,0
2016-10-25T04:05:32.280Z,0
2016-10-25T04:06:12.739Z,0
2016-10-25T04:06:53.188Z,0
2016-10-25T04:07:33.624Z,0
2016-10-25T04:08:14.051Z,0
2016-10-25T04:08:54.518Z,0
2016-10-25T04:09:34.960Z,0
2016-10-25T04:10:15.358Z,0
2016-10-25T04:10:55.871Z,0
2016-10-25T04:11:36.324Z,0
2016-10-25T04:12:16.761Z,0
2016-10-25T04:12:57.212Z,0
2016-10-25T04:13:37.646Z,0
2016-10-25T04:14:18.112Z,0
2016-10-25T04:14:58.550Z,0
2016-10-25T04:15:38.966Z,0
2016-10-25T04:16:19.432Z,0
2016-10-25T04:16:59.897Z,0
2016-10-25T04:17:40.295Z,0
2016-10-25T04:18:20.723Z,0
2016-10-25T04:19:01.188Z,0
2016-10-25T04:19:41.621Z,0
2016-10-25T04:20:22.081Z,0
2016-10-25T04:21:02.499Z,0
2016-10-25T04:21:42.992Z,0
2016-10-25T04:22:23.432Z,0
2016-10-25T04:23:03.918Z,0
2016-10-25T04:23:44.347Z,0
2016-10-25T04:24:24.774Z,0
2016-10-25T04:25:05.259Z,0
2016-10-25T04:25:45.678Z,0
2016-10-25T04:26:26.139Z,0
2016-10-25T04:27:06.586Z,0
2016-10-25T04:27:47.060Z,0
2016-10-25T04:28:27.483Z,0
2016-10-25T04:29:07.963Z,0
2016-10-25T04:29:48.376Z,0
2016-10-25T04:30:28.839Z,0
2016-10-25T04:31:09.240Z,0
2016-10-25T04:31:49.685Z,0
2016-10-25T04:32:30.136Z,0
2016-10-25T04:33:10.565Z,0
2016-10-25T04:33:51.003Z,0
2016-10-25T04:34:31.455Z,0
2016-10-25T04:35:11.870Z,0
2016-10-25T04:35:52.282Z,0
2016-10-25T04:36:32.751Z,0
2016-10-25T04:37:13.159Z,0
2016-10-25T04:37:53.610Z,0
2016-10-25T04:38:34.245Z,0
2016-10-25T04:39:14.682Z,0
2016-10-25T04:39:55.069Z,0
2016-10-25T04:40:35.503Z,0
2016-10-25T04:41:15.968Z,0
2016-10-25T04:41:56.429Z,0
2016-10-25T04:42:36.887Z,0
2016-10-25T04:43:17.365Z,0
2016-10-25T04:43:57.746Z,0
2016-10-25T04:44:38.274Z,0
2016-10-25T04:45:18.661Z,0
2016-10-25T04:45:59.111Z,0
2016-10-25T04:46:39.530Z,0
2016-10-25T04:47:19.964Z,0
2016-10-25T04:48:00.420Z,0
2016-10-25T04:48:40.878Z,0
2016-10-25T04:49:21.333Z,0
2016-10-25T04:50:01.788Z,0
2016-10-25T04:50:42.223Z,0
2016-10-25T04:51:22.682Z,0
2016-10-25T04:52:03.095Z,0
2016-10-25T04:52:43.636Z,0
2016-10-25T04:53:24.034Z,0
2016-10-25T04:54:04.460Z,0
2016-10-25T04:54:44.941Z,0
2016-10-25T04:55:25.382Z,0
2016-10-25T04:56:05.821Z,0
2016-10-25T04:56:46.285Z,0
2016-10-25T04:57:26.689Z,0
2016-10-25T04:58:07.133Z,0
2016-10-25T04:58:47.626Z,0
2016-10-25T04:59:28.079Z,0
2016-10-25T05:00:08.482Z,0
2016-10-25T05:00:48.921Z,0
2016-10-25T05:01:29.387Z,0
2016-10-25T05:02:09.806Z,0
2016-10-25T05:02:50.249Z,0
2016-10-25T05:03:30.692Z,0
2016-10-25T05:04:11.112Z,0
2016-10-25T05:04:51.553Z,0
2016-10-25T05:05:31.981Z,0
2016-10-25T05:06:12.461Z,0
2016-10-25T05:06:52.930Z,0
2016-10-25T05:07:33.380Z,0
2016-10-25T05:08:13.840Z,0
2016-10-25T05:08:54.289Z,0
2016-10-25T05:09:34.691Z,0
2016-10-25T05:10:15.147Z,0
2016-10-25T05:10:55.630Z,0
2016-10-25T05:11:36.080Z,0
2016-10-25T05:12:16.545Z,0
2016-10-25T05:12:56.958Z,0
2016-10-25T05:13:37.452Z,0
2016-10-25T05:14:17.902Z,0
2016-10-25T05:14:58.830Z,0
2016-10-25T05:15:39.243Z,0
2016-10-25T05:16:19.683Z,0
2016-10-25T05:17:00.129Z,0
2016-10-25T05:17:40.610Z,0
2016-10-25T05:18:21.040Z,0
2016-10-25T05:19:01.470Z,0
2016-10-25T05:19:41.936Z,0
2016-10-25T05:20:22.368Z,0
2016-10-25T05:21:02.751Z,0
2016-10-25T05:21:43.221Z,0
2016-10-25T05:22:23.706Z,0
2016-10-25T05:23:04.156Z,0
2016-10-25T05:23:45.611Z,0
2016-10-25T05:24:26.009Z,0
2016-10-25T05:25:06.463Z,0
2016-10-25T05:25:46.928Z,0
2016-10-25T05:26:27.375Z,0
2016-10-25T05:27:07.912Z,0
2016-10-25T05:27:48.269Z,0
2016-10-25T05:28:28.870Z,0
2016-10-25T05:29:09.365Z,0
2016-10-25T05:29:49.776Z,0
2016-10-25T05:30:30.306Z,0
2016-10-25T05:31:10.726Z,0
2016-10-25T05:31:51.196Z,0
2016-10-25T05:32:31.667Z,0
2016-10-25T05:33:12.130Z,0
2016-10-25T05:33:52.584Z,0
2016-10-25T05:34:33.156Z,0
2016-10-25T05:35:13.616Z,0
2016-10-25T05:35:54.077Z,0
2016-10-25T05:36:34.602Z,0
2016-10-25T05:37:15.034Z,0
2016-10-25T05:37:55.583Z,0
2016-10-25T05:38:35.997Z,0
2016-10-25T05:39:16.406Z,0
2016-10-25T05:39:56.906Z,0
2016-10-25T05:40:37.408Z,0
2016-10-25T05:41:17.919Z,0
2016-10-25T05:41:58.350Z,0
2016-10-25T05:42:38.758Z,0
2016-10-25T05:43:19.255Z,0
2016-10-25T05:43:59.702Z,0
2016-10-25T05:44:40.181Z,0
2016-10-25T05:45:20.677Z,0
2016-10-25T05:46:01.122Z,0
2016-10-25T05:46:41.641Z,0
2016-10-25T05:47:22.369Z,0
2016-10-25T05:48:02.768Z,0
2016-10-25T05:48:43.237Z,0
2016-10-25T05:49:23.615Z,0
2016-10-25T05:50:04.273Z,0
2016-10-25T05:50:44.717Z,0
2016-10-25T05:51:25.181Z,0
2016-10-25T05:52:05.589Z,0
2016-10-25T05:52:46.055Z,0
2016-10-25T05:53:26.500Z,0
2016-10-25T05:54:06.911Z,0
2016-10-25T05:54:47.343Z,0
2016-10-25T05:55:27.803Z,0
2016-10-25T05:56:08.285Z,0
2016-10-25T05:56:48.719Z,0
2016-10-25T05:57:29.185Z,0
2016-10-25T05:58:09.617Z,0
2016-10-25T05:58:50.108Z,0
2016-10-25T05:59:30.570Z,0
2016-10-25T06:00:11.006Z,0
2016-10-25T06:00:51.465Z,0
2016-10-25T06:01:31.877Z,0
2016-10-25T06:02:12.349Z,0
2016-10-25T06:02:52.825Z,0
2016-10-25T06:03:33.259Z,0
2016-10-25T06:04:13.708Z,0
2016-10-25T06:04:54.159Z,0
2016-10-25T06:05:34.603Z,0
2016-10-25T06:06:15.050Z,0
2016-10-25T06:06:55.447Z,0
2016-10-25T06:07:35.906Z,0
2016-10-25T06:08:16.370Z,0
2016-10-25T06:08:56.840Z,0
2016-10-25T06:09:37.295Z,0
2016-10-25T06:10:17.707Z,0
2016-10-25T06:10:58.219Z,0
2016-10-25T06:11:38.686Z,0
2016-10-25T06:12:19.107Z,0
2016-10-25T06:12:59.546Z,0
2016-10-25T06:13:39.997Z,0
2016-10-25T06:14:20.426Z,0
2016-10-25T06:15:00.908Z,0
2016-10-25T06:15:41.348Z,0
2016-10-25T06:16:21.791Z,0
2016-10-25T06:17:02.353Z,0
2016-10-25T06:17:42.740Z,0
2016-10-25T06:18:23.255Z,0
2016-10-25T06:19:03.721Z,5
2016-10-25T06:19:44.207Z,5
2016-10-25T06:20:24.701Z,5
2016-10-25T06:21:05.112Z,5
2016-10-25T06:21:45.593Z,5
2016-10-25T06:22:26.011Z,5
2016-10-25T06:23:06.483Z,5
2016-10-25T06:23:46.958Z,5
2016-10-25T06:24:27.577Z,5
2016-10-25T06:25:07.980Z,5
2016-10-25T06:25:48.616Z,5
2016-10-25T06:26:28.997Z,5
2016-10-25T06:27:09.432Z,5
2016-10-25T06:27:49.835Z,5
2016-10-25T06:28:30.313Z,5
2016-10-25T06:29:10.794Z,5
2016-10-25T06:29:51.318Z,10
2016-10-25T06:30:31.860Z,10
2016-10-25T06:31:12.380Z,10
2016-10-25T06:31:52.808Z,10
2016-10-25T06:32:33.278Z,10
2016-10-25T06:33:13.712Z,5
2016-10-25T06:33:54.201Z,5
2016-10-25T06:34:34.858Z,10
2016-10-25T06:35:15.215Z,10
2016-10-25T06:35:55.707Z,10
2016-10-25T06:36:36.246Z,10
2016-10-25T06:37:16.603Z,10
2016-10-25T06:37:57.301Z,10
2016-10-25T06:38:37.553Z,10
2016-10-25T06:39:18.030Z,10
2016-10-25T06:39:58.452Z,10
2016-10-25T06:40:39.207Z,10
2016-10-25T06:41:19.760Z,10
2016-10-25T06:42:00.193Z,10
2016-10-25T06:42:40.656Z,10
2016-10-25T06:43:21.166Z,10
2016-10-25T06:44:01.565Z,10
2016-10-25T06:44:42.005Z,10
2016-10-25T06:45:22.508Z,10
2016-10-25T06:46:02.956Z,10
2016-10-25T06:46:43.463Z,10
2016-10-25T06:47:23.913Z,10
2016-10-25T06:48:04.367Z,10
2016-10-25T06:48:44.843Z,10
2016-10-25T06:49:25.305Z,10
2016-10-25T06:50:05.818Z,10
2016-10-25T06:50:46.271Z,15
2016-10-25T06:51:26.717Z,15
2016-10-25T06:52:07.156Z,20
2016-10-25T06:52:47.616Z,20
2016-10-25T06:53:28.115Z,20
2016-10-25T06:54:08.594Z,20
2016-10-25T06:54:49.013Z,20
2016-10-25T06:55:29.467Z,20
2016-10-25T06:56:09.964Z,20
2016-10-25T06:56:50.411Z,20
2016-10-25T06:57:30.859Z,20
2016-10-25T06:58:11.293Z,15
2016-10-25T06:58:51.677Z,15
2016-10-25T06:59:32.168Z,15
2016-10-25T07:00:12.640Z,20
2016-10-25T07:00:53.184Z,20
2016-10-25T07:01:33.716Z,20
2016-10-25T07:02:14.241Z,20
2016-10-25T07:02:54.660Z,20
2016-10-25T07:03:35.143Z,20
2016-10-25T07:04:15.591Z,20
2016-10-25T07:04:56.050Z,20
2016-10-25T07:05:36.499Z,25
2016-10-25T07:06:16.960Z,25
2016-10-25T07:06:57.391Z,30
2016-10-25T07:07:37.882Z,30
2016-10-25T07:08:18.307Z,35
2016-10-25T07:08:58.762Z,35
2016-10-25T07:09:39.236Z,35
2016-10-25T07:10:19.757Z,35
2016-10-25T07:11:00.373Z,35
2016-10-25T07:11:40.738Z,30
2016-10-25T07:12:21.197Z,30
2016-10-25T07:13:01.658Z,30
2016-10-25T07:13:42.143Z,30
2016-10-25T07:14:22.647Z,30
2016-10-25T07:15:03.085Z,30
2016-10-25T07:15:43.580Z,30
2016-10-25T07:16:24.043Z,30
2016-10-25T07:17:04.505Z,30
2016-10-25T07:17:44.951Z,30
2016-10-25T07:18:25.443Z,30
2016-10-25T07:19:05.908Z,30
2016-10-25T07:19:46.339Z,25
2016-10-25T07:20:26.794Z,25
2016-10-25T07:21:07.282Z,25
2016-10-25T07:21:47.749Z,25
2016-10-25T07:22:28.216Z,25
2016-10-25T07:23:08.700Z,30
2016-10-25T07:23:49.113Z,30
2016-10-25T07:24:29.567Z,30
2016-10-25T07:25:10.024Z,30
2016-10-25T07:25:50.491Z,25
2016-10-25T07:26:30.937Z,25
2016-10-25T07:27:11.406Z,25
2016-10-25T07:27:51.851Z,25
2016-10-25T07:28:32.336Z,25
2016-10-25T07:29:12.776Z,30
2016-10-25T07:29:53.228Z,30
2016-10-25T07:30:33.668Z,30
2016-10-25T07:31:14.150Z,30
2016-10-25T07:31:54.627Z,30
2016-10-25T07:32:35.085Z,35
2016-10-25T07:33:15.579Z,35
2016-10-25T07:33:56.033Z,35
2016-10-25T07:34:36.467Z,35
2016-10-25T07:35:16.973Z,40
2016-10-25T07:35:57.393Z,40
2016-10-25T07:36:37.843Z,40
2016-10-25T07:37:18.304Z,35
2016-10-25T07:37:58.754Z,35
2016-10-25T07:38:39.220Z,35
2016-10-25T07:39:19.717Z,40
2016-10-25T07:40:00.191Z,40
2016-10-25T07:40:40.659Z,45
2016-10-25T07:41:21.121Z,45
2016-10-25T07:42:01.565Z,45
2016-10-25T07:42:42.040Z,45
2016-10-25T07:43:22.492Z,45
2016-10-25T07:44:02.971Z,45
2016-10-25T07:44:43.410Z,40
2016-10-25T07:45:23.836Z,40
2016-10-25T07:46:04.288Z,40
2016-10-25T07:46:44.798Z,40
2016-10-25T07:47:25.189Z,40
2016-10-25T07:48:05.664Z,40
2016-10-25T07:48:46.115Z,45
2016-10-25T07:49:26.567Z,45
2016-10-25T07:50:07.039Z,45
2016-10-25T07:50:47.512Z,45
2016-10-25T07:51:27.973Z,45
2016-10-25T07:52:08.496Z,45
2016-10-25T07:52:48.947Z,40
2016-10-25T07:53:29.418Z,40
2016-10-25T07:54:09.875Z,45
2016-10-25T07:54:50.353Z,45
2016-10-25T07:55:30.793Z,45
2016-10-25T07:56:11.255Z,50
2016-10-25T07:56:51.770Z,50
2016-10-25T07:57:32.251Z,50
2016-10-25T07:58:12.669Z,55
2016-10-25T07:58:53.117Z,55
2016-10-25T07:59:33.572Z,55
2016-10-25T08:00:14.066Z,55
2016-10-25T08:00:54.451Z,55
2016-10-25T08:01:34.930Z,60
2016-10-25T08:02:15.432Z,60
2016-10-25T08:02:55.887Z,60
2016-10-25T08:03:36.348Z,60
2016-10-25T08:04:16.819Z,65
2016-10-25T08:04:57.270Z,65
2016-10-25T08:05:37.870Z,70
2016-10-25T08:06:18.347Z,70
2016-10-25T08:06:58.803Z,75
2016-10-25T08:07:39.266Z,75
2016-10-25T08:08:19.776Z,75
2016-10-25T08:09:00.204Z,80
2016-10-25T08:09:40.684Z,80
2016-10-25T08:10:21.122Z,80
2016-10-25T08:11:01.585Z,85
2016-10-25T08:11:42.045Z,85
2016-10-25T08:12:22.509Z,90
2016-10-25T08:13:02.992Z,90
2016-10-25T08:13:43.467Z,90
2016-10-25T08:14:23.902Z,90
2016-10-25T08:15:04.321Z,90
2016-10-25T08:15:44.776Z,90
2016-10-25T08:16:25.277Z,90
2016-10-25T08:17:05.659Z,85
2016-10-25T08:17:46.165Z,85
2016-10-25T08:18:26.600Z,85
2016-10-25T08:19:07.038Z,80
2016-10-25T08:19:47.538Z,75
2016-10-25T08:20:27.972Z,75
2016-10-25T08:21:08.447Z,75
2016-10-25T08:21:48.953Z,75
2016-10-25T08:22:29.345Z,75
2016-10-25T08:23:09.838Z,75
2016-10-25T08:23:50.296Z,75
2016-10-25T08:24:30.786Z,75
2016-10-25T08:25:11.233Z,75
2016-10-25T08:25:51.693Z,75
2016-10-25T08:26:32.181Z,75
2016-10-25T08:27:12.627Z,75
2016-10-25T08:27:53.097Z,75
2016-10-25T08:28:33.544Z,75
2016-10-25T08:29:14.010Z,75
2016-10-25T08:29:54.478Z,75
2016-10-25T08:30:34.976Z,80
2016-10-25T08:31:15.414Z,85
2016-10-25T08:31:55.899Z,85
2016-10-25T08:32:36.368Z,80
2016-10-25T08:33:16.835Z,80
2016-10-25T08:33:57.272Z,80
2016-10-25T08:34:37.711Z,75
2016-10-25T08:35:18.165Z,75
2016-10-25T08:35:58.608Z,75
2016-10-25T08:36:39.064Z,75
2016-10-25T08:37:19.518Z,75
2016-10-25T08:37:59.984Z,80
2016-10-25T08:38:40.471Z,80
2016-10-25T08:39:20.920Z,85
2016-10-25T08:40:01.402Z,85
2016-10-25T08:40:41.865Z,85
2016-10-25T08:41:22.269Z,85
2016-10-25T08:42:02.739Z,80
2016-10-25T08:42:43.199Z,75
2016-10-25T08:43:23.651Z,70
2016-10-25T08:45:52.775Z,70
2016-10-25T08:46:33.231Z,70
2016-10-25T08:47:13.705Z,75
2016-10-25T08:47:54.157Z,75
2016-10-25T08:48:34.628Z,75
2016-10-25T08:49:15.103Z,75
2016-10-25T08:49:55.553Z,75
2016-10-25T08:50:36.010Z,80
2016-10-25T08:51:16.520Z,80
2016-10-25T08:51:57.017Z,80
2016-10-25T08:52:37.485Z,75
2016-10-25T08:53:17.940Z,80
2016-10-25T08:53:58.403Z,85
2016-10-25T08:54:38.824Z,85
2016-10-25T08:55:19.320Z,90
2016-10-25T08:55:59.782Z,95
2016-10-25T08:56:40.246Z,95
2016-10-25T08:57:20.703Z,100
2016-10-25T08:58:01.191Z,100
2016-10-25T08:58:41.659Z,100
2016-10-25T08:59:22.132Z,100
2016-10-25T09:00:02.605Z,105
2016-10-25T09:00:43.225Z,105
2016-10-25T09:01:23.604Z,110
2016-10-25T09:02:04.076Z,105
2016-10-25T09:02:44.537Z,100
2016-10-25T09:03:24.984Z,100
2016-10-25T09:04:05.444Z,95
2016-10-25T09:04:45.929Z,95
2016-10-25T09:05:26.399Z,100
2016-10-25T09:06:06.840Z,100
2016-10-25T09:06:47.322Z,105
2016-10-25T09:07:27.784Z,100
2016-10-25T09:08:08.264Z,105
2016-10-25T09:08:48.693Z,105
2016-10-25T09:09:29.146Z,100
2016-10-25T09:10:09.605Z,100
2016-10-25T09:10:50.053Z,100
2016-10-25T09:11:30.511Z,95
2016-10-25T09:12:10.921Z,95
2016-10-25T09:12:51.378Z,100
2016-10-25T09:13:31.824Z,100
2016-10-25T09:14:12.300Z,100
2016-10-25T09:14:52.750Z,95
2016-10-25T09:15:33.218Z,100
2016-10-25T09:16:13.680Z,100
2016-10-25T09:16:54.158Z,100
2016-10-25T09:17:34.611Z,105
2016-10-25T09:18:15.055Z,110
2016-10-25T09:18:55.517Z,115
2016-10-25T09:19:36.007Z,115
2016-10-25T09:20:16.461Z,120
2016-10-25T09:20:56.909Z,120
2016-10-25T09:21:37.375Z,125
2016-10-25T09:22:17.870Z,135
2016-10-25T09:22:58.272Z,135
2016-10-25T09:23:38.774Z,135
2016-10-25T09:24:19.300Z,135
2016-10-25T09:24:59.728Z,130
2016-10-25T09:25:40.233Z,125
2016-10-25T09:26:20.669Z,120
2016-10-25T09:27:01.119Z,120
2016-10-25T09:27:41.580Z,120
2016-10-25T09:28:22.230Z,120
2016-10-25T09:29:02.649Z,125
2016-10-25T09:29:43.187Z,125
2016-10-25T09:30:23.619Z,125
2016-10-25T09:31:04.066Z,130
2016-10-25T09:31:44.497Z,125
2016-10-25T09:32:24.958Z,125
2016-10-25T09:33:05.423Z,130
2016-10-25T09:33:45.889Z,130
2016-10-25T09:34:26.372Z,130
2016-10-25T09:35:06.897Z,130
2016-10-25T09:35:47.274Z,135
2016-10-25T09:36:27.710Z,140
2016-10-25T09:37:08.149Z,145
2016-10-25T09:37:48.600Z,145
2016-10-25T09:38:29.040Z,155
2016-10-25T09:39:09.505Z,160
2016-10-25T09:39:49.912Z,170
2016-10-25T09:40:30.501Z,175
2016-10-25T09:41:10.899Z,180
2016-10-25T09:41:51.596Z,180
2016-10-25T09:42:32.000Z,180
2016-10-25T09:43:12.564Z,180
2016-10-25T09:43:52.939Z,175
2016-10-25T09:44:33.394Z,175
2016-10-25T09:45:13.854Z,175
2016-10-25T09:45:54.372Z,175
2016-10-25T09:46:34.983Z,175
2016-10-25T09:47:15.597Z,180
2016-10-25T09:47:56.064Z,180
2016-10-25T09:48:36.597Z,180
2016-10-25T09:49:17.160Z,185
2016-10-25T09:49:57.623Z,180
2016-10-25T09:50:38.104Z,180